sensor_id;sensor_type;location;lat;lon;timestamp;P1;durP1;ratioP1;P2;durP2;ratioP2
60582;SDS011;46415;47.536;19.066;2023-06-22T00:00:31;10.15;;;6.00;;
60582;SDS011;46415;47.536;19.066;2023-06-22T00:03:34;8.70;;;6.05;;
60582;SDS011;46415;47.536;19.066;2023-06-22T00:06:37;9.23;;;5.95;;
60582;SDS011;46415;47.536;19.066;2023-06-22T00:09:40;10.75;;;6.00;;
60582;SDS011;46415;47.536;19.066;2023-06-22T00:12:42;8.50;;;6.10;;
60582;SDS011;46415;47.536;19.066;2023-06-22T00:15:45;7.40;;;5.85;;
60582;SDS011;46415;47.536;19.066;2023-06-22T00:18:48;7.93;;;6.05;;
60582;SDS011;46415;47.536;19.066;2023-06-22T00:21:51;8.43;;;6.00;;
60582;SDS011;46415;47.536;19.066;2023-06-22T00:24:56;11.32;;;6.37;;
60582;SDS011;46415;47.536;19.066;2023-06-22T00:27:59;6.85;;;5.65;;
60582;SDS011;46415;47.536;19.066;2023-06-22T00:31:02;8.88;;;6.00;;
60582;SDS011;46415;47.536;19.066;2023-06-22T00:34:05;7.93;;;5.50;;
60582;SDS011;46415;47.536;19.066;2023-06-22T00:37:09;7.70;;;6.10;;
60582;SDS011;46415;47.536;19.066;2023-06-22T00:40:13;12.57;;;6.25;;
60582;SDS011;46415;47.536;19.066;2023-06-22T00:43:16;8.38;;;5.55;;
60582;SDS011;46415;47.536;19.066;2023-06-22T00:46:20;6.82;;;5.80;;
60582;SDS011;46415;47.536;19.066;2023-06-22T00:49:24;8.48;;;6.70;;
60582;SDS011;46415;47.536;19.066;2023-06-22T00:52:27;9.25;;;6.22;;
60582;SDS011;46415;47.536;19.066;2023-06-22T00:55:32;10.25;;;6.68;;
60582;SDS011;46415;47.536;19.066;2023-06-22T00:58:39;9.65;;;6.43;;
60582;SDS011;46415;47.536;19.066;2023-06-22T01:01:44;9.05;;;6.15;;
60582;SDS011;46415;47.536;19.066;2023-06-22T01:04:47;8.38;;;5.82;;
60582;SDS011;46415;47.536;19.066;2023-06-22T01:11:12;11.07;;;6.17;;
60582;SDS011;46415;47.536;19.066;2023-06-22T01:14:30;8.93;;;5.70;;
60582;SDS011;46415;47.536;19.066;2023-06-22T01:17:40;7.22;;;5.47;;
60582;SDS011;46415;47.536;19.066;2023-06-22T01:20:46;7.82;;;5.55;;
60582;SDS011;46415;47.536;19.066;2023-06-22T01:27:51;6.57;;;5.32;;
60582;SDS011;46415;47.536;19.066;2023-06-22T01:30:55;11.25;;;5.65;;
60582;SDS011;46415;47.536;19.066;2023-06-22T01:34:08;7.12;;;5.25;;
60582;SDS011;46415;47.536;19.066;2023-06-22T01:37:13;5.35;;;4.82;;
60582;SDS011;46415;47.536;19.066;2023-06-22T01:40:17;7.28;;;4.82;;
60582;SDS011;46415;47.536;19.066;2023-06-22T01:43:22;9.50;;;5.87;;
60582;SDS011;46415;47.536;19.066;2023-06-22T01:46:27;8.63;;;5.95;;
60582;SDS011;46415;47.536;19.066;2023-06-22T01:49:31;9.48;;;6.18;;
60582;SDS011;46415;47.536;19.066;2023-06-22T01:52:33;10.25;;;6.57;;
60582;SDS011;46415;47.536;19.066;2023-06-22T01:55:36;10.77;;;7.22;;
60582;SDS011;46415;47.536;19.066;2023-06-22T01:58:41;10.85;;;6.37;;
60582;SDS011;46415;47.536;19.066;2023-06-22T02:02:09;11.50;;;7.00;;
60582;SDS011;46415;47.536;19.066;2023-06-22T02:05:15;7.18;;;5.35;;
60582;SDS011;46415;47.536;19.066;2023-06-22T02:08:23;12.35;;;5.95;;
60582;SDS011;46415;47.536;19.066;2023-06-22T02:11:33;12.60;;;6.43;;
60582;SDS011;46415;47.536;19.066;2023-06-22T02:14:38;8.23;;;5.75;;
60582;SDS011;46415;47.536;19.066;2023-06-22T02:17:42;9.23;;;5.90;;
60582;SDS011;46415;47.536;19.066;2023-06-22T02:20:47;8.23;;;6.07;;
60582;SDS011;46415;47.536;19.066;2023-06-22T02:23:50;8.00;;;5.50;;
60582;SDS011;46415;47.536;19.066;2023-06-22T02:26:53;7.80;;;5.50;;
60582;SDS011;46415;47.536;19.066;2023-06-22T02:29:56;11.32;;;5.55;;
60582;SDS011;46415;47.536;19.066;2023-06-22T02:32:59;9.10;;;5.57;;
60582;SDS011;46415;47.536;19.066;2023-06-22T02:36:02;8.25;;;5.37;;
60582;SDS011;46415;47.536;19.066;2023-06-22T02:39:07;12.85;;;5.70;;
60582;SDS011;46415;47.536;19.066;2023-06-22T02:42:11;9.68;;;5.28;;
60582;SDS011;46415;47.536;19.066;2023-06-22T02:45:14;11.60;;;5.10;;
60582;SDS011;46415;47.536;19.066;2023-06-22T02:48:17;7.07;;;5.12;;
60582;SDS011;46415;47.536;19.066;2023-06-22T02:51:20;12.13;;;4.85;;
60582;SDS011;46415;47.536;19.066;2023-06-22T02:54:23;6.75;;;5.00;;
60582;SDS011;46415;47.536;19.066;2023-06-22T02:57:26;7.43;;;5.00;;
60582;SDS011;46415;47.536;19.066;2023-06-22T03:00:29;7.07;;;4.68;;
60582;SDS011;46415;47.536;19.066;2023-06-22T03:03:33;10.68;;;5.30;;
60582;SDS011;46415;47.536;19.066;2023-06-22T03:06:36;7.53;;;4.72;;
60582;SDS011;46415;47.536;19.066;2023-06-22T03:09:39;8.00;;;4.80;;
60582;SDS011;46415;47.536;19.066;2023-06-22T03:12:43;8.93;;;4.87;;
60582;SDS011;46415;47.536;19.066;2023-06-22T03:15:46;7.72;;;5.43;;
60582;SDS011;46415;47.536;19.066;2023-06-22T03:18:49;10.32;;;4.95;;
60582;SDS011;46415;47.536;19.066;2023-06-22T03:21:52;6.87;;;4.97;;
60582;SDS011;46415;47.536;19.066;2023-06-22T03:24:54;8.30;;;5.05;;
60582;SDS011;46415;47.536;19.066;2023-06-22T03:27:57;8.13;;;4.85;;
60582;SDS011;46415;47.536;19.066;2023-06-22T03:31:00;9.15;;;4.80;;
60582;SDS011;46415;47.536;19.066;2023-06-22T03:34:04;8.32;;;5.40;;
60582;SDS011;46415;47.536;19.066;2023-06-22T03:37:07;6.62;;;4.95;;
60582;SDS011;46415;47.536;19.066;2023-06-22T03:40:10;8.63;;;4.50;;
60582;SDS011;46415;47.536;19.066;2023-06-22T03:43:14;7.87;;;5.00;;
60582;SDS011;46415;47.536;19.066;2023-06-22T03:46:17;8.65;;;5.03;;
60582;SDS011;46415;47.536;19.066;2023-06-22T03:49:20;7.15;;;4.78;;
60582;SDS011;46415;47.536;19.066;2023-06-22T03:52:23;9.05;;;4.45;;
60582;SDS011;46415;47.536;19.066;2023-06-22T03:55:27;8.25;;;5.10;;
60582;SDS011;46415;47.536;19.066;2023-06-22T03:58:30;7.30;;;4.80;;
60582;SDS011;46415;47.536;19.066;2023-06-22T04:01:35;7.68;;;5.25;;
60582;SDS011;46415;47.536;19.066;2023-06-22T04:04:39;7.37;;;5.43;;
60582;SDS011;46415;47.536;19.066;2023-06-22T04:07:42;9.85;;;5.28;;
60582;SDS011;46415;47.536;19.066;2023-06-22T04:10:45;6.43;;;5.10;;
60582;SDS011;46415;47.536;19.066;2023-06-22T04:13:47;8.07;;;4.95;;
60582;SDS011;46415;47.536;19.066;2023-06-22T04:16:51;7.07;;;4.97;;
60582;SDS011;46415;47.536;19.066;2023-06-22T04:19:54;11.95;;;4.95;;
60582;SDS011;46415;47.536;19.066;2023-06-22T04:22:57;8.07;;;4.90;;
60582;SDS011;46415;47.536;19.066;2023-06-22T04:25:59;8.50;;;4.53;;
60582;SDS011;46415;47.536;19.066;2023-06-22T04:29:03;9.23;;;4.85;;
60582;SDS011;46415;47.536;19.066;2023-06-22T04:32:07;7.28;;;4.35;;
60582;SDS011;46415;47.536;19.066;2023-06-22T04:35:11;9.05;;;4.68;;
60582;SDS011;46415;47.536;19.066;2023-06-22T04:38:13;7.85;;;4.12;;
60582;SDS011;46415;47.536;19.066;2023-06-22T04:41:16;9.27;;;4.55;;
60582;SDS011;46415;47.536;19.066;2023-06-22T04:44:26;6.95;;;4.53;;
60582;SDS011;46415;47.536;19.066;2023-06-22T04:47:29;5.90;;;4.60;;
60582;SDS011;46415;47.536;19.066;2023-06-22T04:50:32;6.32;;;4.55;;
60582;SDS011;46415;47.536;19.066;2023-06-22T04:53:35;6.72;;;4.90;;
60582;SDS011;46415;47.536;19.066;2023-06-22T04:56:37;5.45;;;3.72;;
60582;SDS011;46415;47.536;19.066;2023-06-22T04:59:43;7.95;;;4.07;;
60582;SDS011;46415;47.536;19.066;2023-06-22T05:02:46;6.85;;;4.47;;
60582;SDS011;46415;47.536;19.066;2023-06-22T05:05:49;7.62;;;4.72;;
60582;SDS011;46415;47.536;19.066;2023-06-22T05:08:56;7.90;;;4.75;;
60582;SDS011;46415;47.536;19.066;2023-06-22T05:12:02;5.68;;;4.43;;
60582;SDS011;46415;47.536;19.066;2023-06-22T05:15:09;6.93;;;4.53;;
60582;SDS011;46415;47.536;19.066;2023-06-22T05:18:12;10.02;;;4.65;;
60582;SDS011;46415;47.536;19.066;2023-06-22T05:21:15;9.90;;;5.12;;
60582;SDS011;46415;47.536;19.066;2023-06-22T05:24:18;6.47;;;4.30;;
60582;SDS011;46415;47.536;19.066;2023-06-22T05:27:21;7.22;;;4.40;;
60582;SDS011;46415;47.536;19.066;2023-06-22T05:30:24;5.65;;;4.12;;
60582;SDS011;46415;47.536;19.066;2023-06-22T05:33:26;7.35;;;4.35;;
60582;SDS011;46415;47.536;19.066;2023-06-22T05:36:29;7.57;;;4.18;;
60582;SDS011;46415;47.536;19.066;2023-06-22T05:39:32;5.28;;;4.35;;
60582;SDS011;46415;47.536;19.066;2023-06-22T05:42:35;9.95;;;4.62;;
60582;SDS011;46415;47.536;19.066;2023-06-22T05:45:37;6.57;;;4.20;;
60582;SDS011;46415;47.536;19.066;2023-06-22T05:48:40;7.22;;;4.32;;
60582;SDS011;46415;47.536;19.066;2023-06-22T05:51:43;8.07;;;4.68;;
60582;SDS011;46415;47.536;19.066;2023-06-22T05:54:46;8.98;;;4.75;;
60582;SDS011;46415;47.536;19.066;2023-06-22T05:57:48;5.43;;;4.40;;
60582;SDS011;46415;47.536;19.066;2023-06-22T06:00:51;9.00;;;4.35;;
60582;SDS011;46415;47.536;19.066;2023-06-22T06:03:54;8.10;;;5.05;;
60582;SDS011;46415;47.536;19.066;2023-06-22T06:06:57;9.90;;;4.75;;
60582;SDS011;46415;47.536;19.066;2023-06-22T06:10:00;11.95;;;5.05;;
60582;SDS011;46415;47.536;19.066;2023-06-22T06:13:06;15.65;;;6.05;;
60582;SDS011;46415;47.536;19.066;2023-06-22T06:16:09;13.10;;;6.05;;
60582;SDS011;46415;47.536;19.066;2023-06-22T06:19:11;7.00;;;4.50;;
60582;SDS011;46415;47.536;19.066;2023-06-22T06:22:14;15.45;;;6.12;;
60582;SDS011;46415;47.536;19.066;2023-06-22T06:25:17;18.73;;;8.48;;
60582;SDS011;46415;47.536;19.066;2023-06-22T06:28:22;6.80;;;4.40;;
60582;SDS011;46415;47.536;19.066;2023-06-22T06:31:27;7.90;;;3.70;;
60582;SDS011;46415;47.536;19.066;2023-06-22T06:34:33;6.18;;;4.25;;
60582;SDS011;46415;47.536;19.066;2023-06-22T06:37:36;6.72;;;3.40;;
60582;SDS011;46415;47.536;19.066;2023-06-22T06:40:40;7.32;;;3.87;;
60582;SDS011;46415;47.536;19.066;2023-06-22T06:43:43;9.85;;;3.75;;
60582;SDS011;46415;47.536;19.066;2023-06-22T06:46:46;8.32;;;3.70;;
60582;SDS011;46415;47.536;19.066;2023-06-22T06:49:49;8.32;;;3.60;;
60582;SDS011;46415;47.536;19.066;2023-06-22T06:52:52;7.35;;;4.30;;
60582;SDS011;46415;47.536;19.066;2023-06-22T06:55:55;5.85;;;3.75;;
60582;SDS011;46415;47.536;19.066;2023-06-22T06:58:58;7.82;;;3.47;;
60582;SDS011;46415;47.536;19.066;2023-06-22T07:02:01;5.55;;;3.28;;
60582;SDS011;46415;47.536;19.066;2023-06-22T07:05:04;6.55;;;3.85;;
60582;SDS011;46415;47.536;19.066;2023-06-22T07:08:07;5.90;;;3.08;;
60582;SDS011;46415;47.536;19.066;2023-06-22T07:11:10;6.03;;;2.60;;
60582;SDS011;46415;47.536;19.066;2023-06-22T07:14:13;5.70;;;3.20;;
60582;SDS011;46415;47.536;19.066;2023-06-22T07:17:16;4.12;;;3.50;;
60582;SDS011;46415;47.536;19.066;2023-06-22T07:20:18;6.22;;;3.28;;
60582;SDS011;46415;47.536;19.066;2023-06-22T07:23:22;5.82;;;2.90;;
60582;SDS011;46415;47.536;19.066;2023-06-22T07:26:25;5.65;;;2.97;;
60582;SDS011;46415;47.536;19.066;2023-06-22T07:29:27;7.20;;;3.17;;
60582;SDS011;46415;47.536;19.066;2023-06-22T07:32:30;6.20;;;2.85;;
60582;SDS011;46415;47.536;19.066;2023-06-22T07:35:33;3.70;;;2.42;;
60582;SDS011;46415;47.536;19.066;2023-06-22T07:38:36;7.32;;;3.50;;
60582;SDS011;46415;47.536;19.066;2023-06-22T07:41:39;5.65;;;3.05;;
60582;SDS011;46415;47.536;19.066;2023-06-22T07:44:43;7.20;;;2.87;;
60582;SDS011;46415;47.536;19.066;2023-06-22T07:47:46;8.02;;;2.85;;
60582;SDS011;46415;47.536;19.066;2023-06-22T07:50:49;6.60;;;3.03;;
60582;SDS011;46415;47.536;19.066;2023-06-22T07:53:52;3.92;;;2.78;;
60582;SDS011;46415;47.536;19.066;2023-06-22T07:56:55;4.60;;;2.90;;
60582;SDS011;46415;47.536;19.066;2023-06-22T07:59:58;3.30;;;2.70;;
60582;SDS011;46415;47.536;19.066;2023-06-22T08:03:02;4.07;;;2.80;;
60582;SDS011;46415;47.536;19.066;2023-06-22T08:06:07;6.22;;;3.10;;
60582;SDS011;46415;47.536;19.066;2023-06-22T08:09:12;4.95;;;3.05;;
60582;SDS011;46415;47.536;19.066;2023-06-22T08:12:15;7.82;;;3.42;;
60582;SDS011;46415;47.536;19.066;2023-06-22T08:15:18;4.50;;;2.53;;
60582;SDS011;46415;47.536;19.066;2023-06-22T08:18:21;4.55;;;3.00;;
60582;SDS011;46415;47.536;19.066;2023-06-22T08:21:24;5.70;;;3.37;;
60582;SDS011;46415;47.536;19.066;2023-06-22T08:24:27;5.53;;;3.20;;
60582;SDS011;46415;47.536;19.066;2023-06-22T08:27:32;5.95;;;3.28;;
60582;SDS011;46415;47.536;19.066;2023-06-22T08:30:35;4.15;;;3.00;;
60582;SDS011;46415;47.536;19.066;2023-06-22T08:33:38;4.87;;;3.05;;
60582;SDS011;46415;47.536;19.066;2023-06-22T08:36:51;6.87;;;3.05;;
60582;SDS011;46415;47.536;19.066;2023-06-22T08:39:54;5.35;;;3.45;;
60582;SDS011;46415;47.536;19.066;2023-06-22T08:42:57;6.95;;;3.47;;
60582;SDS011;46415;47.536;19.066;2023-06-22T08:46:00;6.45;;;4.03;;
60582;SDS011;46415;47.536;19.066;2023-06-22T08:49:05;6.93;;;4.53;;
60582;SDS011;46415;47.536;19.066;2023-06-22T08:52:08;6.82;;;4.55;;
60582;SDS011;46415;47.536;19.066;2023-06-22T08:55:11;6.97;;;4.35;;
60582;SDS011;46415;47.536;19.066;2023-06-22T08:58:14;8.60;;;4.53;;
60582;SDS011;46415;47.536;19.066;2023-06-22T09:01:17;6.78;;;5.22;;
60582;SDS011;46415;47.536;19.066;2023-06-22T09:04:19;5.55;;;4.97;;
60582;SDS011;46415;47.536;19.066;2023-06-22T09:07:25;7.45;;;5.18;;
60582;SDS011;46415;47.536;19.066;2023-06-22T09:10:28;5.93;;;5.10;;
60582;SDS011;46415;47.536;19.066;2023-06-22T09:13:32;6.53;;;5.28;;
60582;SDS011;46415;47.536;19.066;2023-06-22T09:16:36;9.10;;;5.75;;
60582;SDS011;46415;47.536;19.066;2023-06-22T09:19:39;6.47;;;5.70;;
60582;SDS011;46415;47.536;19.066;2023-06-22T09:22:42;9.05;;;5.45;;
60582;SDS011;46415;47.536;19.066;2023-06-22T09:25:45;7.40;;;5.70;;
60582;SDS011;46415;47.536;19.066;2023-06-22T09:28:49;8.35;;;6.22;;
60582;SDS011;46415;47.536;19.066;2023-06-22T09:31:52;7.05;;;5.90;;
60582;SDS011;46415;47.536;19.066;2023-06-22T09:34:58;6.87;;;5.60;;
60582;SDS011;46415;47.536;19.066;2023-06-22T09:38:01;6.72;;;6.00;;
60582;SDS011;46415;47.536;19.066;2023-06-22T09:41:04;7.80;;;5.90;;
60582;SDS011;46415;47.536;19.066;2023-06-22T09:44:07;8.70;;;6.30;;
60582;SDS011;46415;47.536;19.066;2023-06-22T09:47:10;9.30;;;6.20;;
60582;SDS011;46415;47.536;19.066;2023-06-22T09:50:13;7.07;;;6.37;;
60582;SDS011;46415;47.536;19.066;2023-06-22T09:53:16;7.93;;;6.03;;
60582;SDS011;46415;47.536;19.066;2023-06-22T09:56:19;6.78;;;6.03;;
60582;SDS011;46415;47.536;19.066;2023-06-22T09:59:22;10.18;;;6.87;;
60582;SDS011;46415;47.536;19.066;2023-06-22T10:02:25;11.25;;;6.55;;
60582;SDS011;46415;47.536;19.066;2023-06-22T10:05:28;6.85;;;6.18;;
60582;SDS011;46415;47.536;19.066;2023-06-22T10:08:31;6.18;;;5.65;;
60582;SDS011;46415;47.536;19.066;2023-06-22T10:11:34;7.03;;;6.32;;
60582;SDS011;46415;47.536;19.066;2023-06-22T10:14:37;7.43;;;6.18;;
60582;SDS011;46415;47.536;19.066;2023-06-22T10:17:40;6.80;;;6.10;;
60582;SDS011;46415;47.536;19.066;2023-06-22T10:20:44;7.35;;;6.10;;
60582;SDS011;46415;47.536;19.066;2023-06-22T10:23:49;9.70;;;6.55;;
60582;SDS011;46415;47.536;19.066;2023-06-22T10:26:52;8.02;;;6.15;;
60582;SDS011;46415;47.536;19.066;2023-06-22T10:29:55;9.90;;;6.75;;
60582;SDS011;46415;47.536;19.066;2023-06-22T10:32:57;9.43;;;6.55;;
60582;SDS011;46415;47.536;19.066;2023-06-22T10:36:00;7.30;;;6.60;;
60582;SDS011;46415;47.536;19.066;2023-06-22T10:39:03;10.45;;;6.68;;
60582;SDS011;46415;47.536;19.066;2023-06-22T10:42:06;7.35;;;6.35;;
60582;SDS011;46415;47.536;19.066;2023-06-22T10:45:09;8.20;;;7.32;;
60582;SDS011;46415;47.536;19.066;2023-06-22T10:48:12;9.75;;;6.40;;
60582;SDS011;46415;47.536;19.066;2023-06-22T10:51:14;7.93;;;6.55;;
60582;SDS011;46415;47.536;19.066;2023-06-22T10:54:17;7.43;;;6.18;;
60582;SDS011;46415;47.536;19.066;2023-06-22T10:57:21;8.35;;;6.97;;
60582;SDS011;46415;47.536;19.066;2023-06-22T11:00:24;7.03;;;6.32;;
60582;SDS011;46415;47.536;19.066;2023-06-22T11:03:27;8.07;;;6.62;;
60582;SDS011;46415;47.536;19.066;2023-06-22T11:06:30;8.45;;;6.43;;
60582;SDS011;46415;47.536;19.066;2023-06-22T11:09:33;7.22;;;6.53;;
60582;SDS011;46415;47.536;19.066;2023-06-22T11:12:36;7.43;;;6.53;;
60582;SDS011;46415;47.536;19.066;2023-06-22T11:15:40;8.70;;;7.00;;
60582;SDS011;46415;47.536;19.066;2023-06-22T11:18:43;7.55;;;6.68;;
60582;SDS011;46415;47.536;19.066;2023-06-22T11:21:45;8.68;;;6.50;;
60582;SDS011;46415;47.536;19.066;2023-06-22T11:24:48;9.93;;;7.15;;
60582;SDS011;46415;47.536;19.066;2023-06-22T11:27:51;13.73;;;7.37;;
60582;SDS011;46415;47.536;19.066;2023-06-22T11:30:56;9.00;;;6.90;;
60582;SDS011;46415;47.536;19.066;2023-06-22T11:34:01;8.07;;;6.85;;
60582;SDS011;46415;47.536;19.066;2023-06-22T11:37:05;8.25;;;6.60;;
60582;SDS011;46415;47.536;19.066;2023-06-22T11:40:08;8.70;;;6.68;;
60582;SDS011;46415;47.536;19.066;2023-06-22T11:43:12;9.60;;;7.07;;
60582;SDS011;46415;47.536;19.066;2023-06-22T11:46:14;7.78;;;6.97;;
60582;SDS011;46415;47.536;19.066;2023-06-22T11:49:17;7.18;;;6.50;;
60582;SDS011;46415;47.536;19.066;2023-06-22T11:52:20;10.15;;;7.30;;
60582;SDS011;46415;47.536;19.066;2023-06-22T11:55:24;7.97;;;6.97;;
60582;SDS011;46415;47.536;19.066;2023-06-22T11:58:26;8.93;;;6.37;;
60582;SDS011;46415;47.536;19.066;2023-06-22T12:01:29;7.65;;;6.12;;
60582;SDS011;46415;47.536;19.066;2023-06-22T12:04:33;10.75;;;6.70;;
60582;SDS011;46415;47.536;19.066;2023-06-22T12:07:35;8.93;;;6.70;;
60582;SDS011;46415;47.536;19.066;2023-06-22T12:10:38;8.73;;;6.43;;
60582;SDS011;46415;47.536;19.066;2023-06-22T12:13:41;6.72;;;6.12;;
60582;SDS011;46415;47.536;19.066;2023-06-22T12:16:44;7.03;;;6.03;;
60582;SDS011;46415;47.536;19.066;2023-06-22T12:19:46;9.45;;;6.40;;
60582;SDS011;46415;47.536;19.066;2023-06-22T12:22:49;11.02;;;7.00;;
60582;SDS011;46415;47.536;19.066;2023-06-22T12:25:53;10.38;;;7.05;;
60582;SDS011;46415;47.536;19.066;2023-06-22T12:28:56;11.63;;;7.15;;
60582;SDS011;46415;47.536;19.066;2023-06-22T12:31:59;7.18;;;6.47;;
60582;SDS011;46415;47.536;19.066;2023-06-22T12:35:02;7.43;;;6.55;;
60582;SDS011;46415;47.536;19.066;2023-06-22T12:38:05;8.07;;;6.60;;
60582;SDS011;46415;47.536;19.066;2023-06-22T12:41:11;9.00;;;6.82;;
60582;SDS011;46415;47.536;19.066;2023-06-22T12:44:14;9.82;;;6.97;;
60582;SDS011;46415;47.536;19.066;2023-06-22T12:47:16;8.85;;;6.65;;
60582;SDS011;46415;47.536;19.066;2023-06-22T12:50:19;7.47;;;6.68;;
60582;SDS011;46415;47.536;19.066;2023-06-22T12:53:22;8.32;;;6.28;;
60582;SDS011;46415;47.536;19.066;2023-06-22T12:56:26;7.18;;;6.47;;
60582;SDS011;46415;47.536;19.066;2023-06-22T12:59:29;7.85;;;6.60;;
60582;SDS011;46415;47.536;19.066;2023-06-22T13:02:31;8.98;;;7.35;;
60582;SDS011;46415;47.536;19.066;2023-06-22T13:05:34;9.25;;;7.28;;
60582;SDS011;46415;47.536;19.066;2023-06-22T13:08:38;8.20;;;6.43;;
60582;SDS011;46415;47.536;19.066;2023-06-22T13:11:44;6.85;;;6.15;;
60582;SDS011;46415;47.536;19.066;2023-06-22T13:14:47;7.05;;;6.30;;
60582;SDS011;46415;47.536;19.066;2023-06-22T13:17:50;9.52;;;6.53;;
60582;SDS011;46415;47.536;19.066;2023-06-22T13:20:53;8.13;;;6.50;;
60582;SDS011;46415;47.536;19.066;2023-06-22T13:23:57;10.73;;;6.82;;
60582;SDS011;46415;47.536;19.066;2023-06-22T13:27:00;6.62;;;6.03;;
60582;SDS011;46415;47.536;19.066;2023-06-22T13:30:03;8.57;;;6.10;;
60582;SDS011;46415;47.536;19.066;2023-06-22T13:33:06;7.47;;;6.30;;
60582;SDS011;46415;47.536;19.066;2023-06-22T13:36:09;8.43;;;6.53;;
60582;SDS011;46415;47.536;19.066;2023-06-22T13:39:12;9.43;;;6.43;;
60582;SDS011;46415;47.536;19.066;2023-06-22T13:42:15;8.43;;;6.12;;
60582;SDS011;46415;47.536;19.066;2023-06-22T13:45:17;7.57;;;6.78;;
60582;SDS011;46415;47.536;19.066;2023-06-22T13:48:21;6.62;;;5.95;;
60582;SDS011;46415;47.536;19.066;2023-06-22T13:51:25;7.75;;;6.37;;
60582;SDS011;46415;47.536;19.066;2023-06-22T13:54:28;9.70;;;6.18;;
60582;SDS011;46415;47.536;19.066;2023-06-22T13:57:33;8.38;;;6.50;;
60582;SDS011;46415;47.536;19.066;2023-06-22T14:00:36;6.95;;;5.57;;
60582;SDS011;46415;47.536;19.066;2023-06-22T14:03:40;7.75;;;6.30;;
60582;SDS011;46415;47.536;19.066;2023-06-22T14:06:42;8.52;;;6.03;;
60582;SDS011;46415;47.536;19.066;2023-06-22T14:09:45;9.48;;;6.30;;
60582;SDS011;46415;47.536;19.066;2023-06-22T14:12:48;8.25;;;6.37;;
60582;SDS011;46415;47.536;19.066;2023-06-22T14:15:51;7.40;;;6.30;;
60582;SDS011;46415;47.536;19.066;2023-06-22T14:18:54;8.57;;;6.10;;
60582;SDS011;46415;47.536;19.066;2023-06-22T14:21:59;6.57;;;5.97;;
60582;SDS011;46415;47.536;19.066;2023-06-22T14:25:02;7.65;;;5.72;;
60582;SDS011;46415;47.536;19.066;2023-06-22T14:28:05;6.53;;;5.93;;
60582;SDS011;46415;47.536;19.066;2023-06-22T14:31:08;8.30;;;5.82;;
60582;SDS011;46415;47.536;19.066;2023-06-22T14:34:11;8.82;;;6.07;;
60582;SDS011;46415;47.536;19.066;2023-06-22T14:37:13;6.65;;;5.95;;
60582;SDS011;46415;47.536;19.066;2023-06-22T14:40:16;7.35;;;5.97;;
60582;SDS011;46415;47.536;19.066;2023-06-22T14:43:19;7.05;;;6.35;;
60582;SDS011;46415;47.536;19.066;2023-06-22T14:46:22;6.10;;;5.50;;
60582;SDS011;46415;47.536;19.066;2023-06-22T14:49:25;8.30;;;6.15;;
60582;SDS011;46415;47.536;19.066;2023-06-22T14:52:28;7.50;;;5.80;;
60582;SDS011;46415;47.536;19.066;2023-06-22T14:55:30;9.38;;;5.90;;
60582;SDS011;46415;47.536;19.066;2023-06-22T14:58:33;9.60;;;5.75;;
60582;SDS011;46415;47.536;19.066;2023-06-22T15:01:37;7.87;;;6.03;;
60582;SDS011;46415;47.536;19.066;2023-06-22T15:04:43;10.98;;;5.60;;
60582;SDS011;46415;47.536;19.066;2023-06-22T15:07:45;8.38;;;5.60;;
60582;SDS011;46415;47.536;19.066;2023-06-22T15:10:48;5.62;;;5.05;;
60582;SDS011;46415;47.536;19.066;2023-06-22T15:13:52;6.78;;;5.50;;
60582;SDS011;46415;47.536;19.066;2023-06-22T15:16:55;7.68;;;5.68;;
60582;SDS011;46415;47.536;19.066;2023-06-22T15:19:58;5.75;;;5.20;;
60582;SDS011;46415;47.536;19.066;2023-06-22T15:23:01;7.62;;;5.72;;
60582;SDS011;46415;47.536;19.066;2023-06-22T15:26:04;6.75;;;5.60;;
60582;SDS011;46415;47.536;19.066;2023-06-22T15:29:10;5.95;;;5.30;;
60582;SDS011;46415;47.536;19.066;2023-06-22T15:32:13;6.78;;;5.47;;
60582;SDS011;46415;47.536;19.066;2023-06-22T15:35:15;6.07;;;5.37;;
60582;SDS011;46415;47.536;19.066;2023-06-22T15:38:21;6.57;;;5.43;;
60582;SDS011;46415;47.536;19.066;2023-06-22T15:41:24;6.37;;;5.50;;
60582;SDS011;46415;47.536;19.066;2023-06-22T15:44:27;6.32;;;5.55;;
60582;SDS011;46415;47.536;19.066;2023-06-22T15:47:30;8.65;;;6.20;;
60582;SDS011;46415;47.536;19.066;2023-06-22T15:50:33;15.20;;;6.15;;
60582;SDS011;46415;47.536;19.066;2023-06-22T15:53:36;6.40;;;4.85;;
60582;SDS011;46415;47.536;19.066;2023-06-22T15:56:38;7.20;;;5.37;;
60582;SDS011;46415;47.536;19.066;2023-06-22T15:59:42;5.15;;;4.75;;
60582;SDS011;46415;47.536;19.066;2023-06-22T16:02:46;7.07;;;5.50;;
60582;SDS011;46415;47.536;19.066;2023-06-22T16:05:49;5.93;;;5.10;;
60582;SDS011;46415;47.536;19.066;2023-06-22T16:08:52;7.50;;;5.78;;
60582;SDS011;46415;47.536;19.066;2023-06-22T16:11:55;7.80;;;5.53;;
60582;SDS011;46415;47.536;19.066;2023-06-22T16:14:58;8.00;;;5.40;;
60582;SDS011;46415;47.536;19.066;2023-06-22T16:18:01;7.03;;;5.70;;
60582;SDS011;46415;47.536;19.066;2023-06-22T16:21:04;7.90;;;5.90;;
60582;SDS011;46415;47.536;19.066;2023-06-22T16:24:07;8.10;;;5.68;;
60582;SDS011;46415;47.536;19.066;2023-06-22T16:27:10;7.80;;;5.50;;
60582;SDS011;46415;47.536;19.066;2023-06-22T16:30:13;11.52;;;5.72;;
60582;SDS011;46415;47.536;19.066;2023-06-22T16:33:15;9.02;;;5.72;;
60582;SDS011;46415;47.536;19.066;2023-06-22T16:36:18;8.38;;;5.75;;
60582;SDS011;46415;47.536;19.066;2023-06-22T16:39:21;7.60;;;5.93;;
60582;SDS011;46415;47.536;19.066;2023-06-22T16:42:24;7.85;;;6.10;;
60582;SDS011;46415;47.536;19.066;2023-06-22T16:45:27;8.65;;;5.57;;
60582;SDS011;46415;47.536;19.066;2023-06-22T16:48:30;6.50;;;5.68;;
60582;SDS011;46415;47.536;19.066;2023-06-22T16:51:32;8.25;;;6.10;;
60582;SDS011;46415;47.536;19.066;2023-06-22T16:54:35;10.57;;;5.90;;
60582;SDS011;46415;47.536;19.066;2023-06-22T16:57:47;8.05;;;5.70;;
60582;SDS011;46415;47.536;19.066;2023-06-22T17:00:53;7.68;;;5.90;;
60582;SDS011;46415;47.536;19.066;2023-06-22T17:04:01;7.22;;;5.53;;
60582;SDS011;46415;47.536;19.066;2023-06-22T17:07:14;7.85;;;6.10;;
60582;SDS011;46415;47.536;19.066;2023-06-22T17:10:22;7.95;;;5.95;;
60582;SDS011;46415;47.536;19.066;2023-06-22T17:13:25;9.40;;;6.20;;
60582;SDS011;46415;47.536;19.066;2023-06-22T17:16:30;7.37;;;5.87;;
60582;SDS011;46415;47.536;19.066;2023-06-22T17:19:34;8.65;;;6.55;;
60582;SDS011;46415;47.536;19.066;2023-06-22T17:22:37;8.88;;;6.12;;
60582;SDS011;46415;47.536;19.066;2023-06-22T17:25:41;12.13;;;6.90;;
60582;SDS011;46415;47.536;19.066;2023-06-22T17:28:48;8.30;;;6.20;;
60582;SDS011;46415;47.536;19.066;2023-06-22T17:32:04;11.38;;;7.40;;
60582;SDS011;46415;47.536;19.066;2023-06-22T17:35:09;8.43;;;6.85;;
60582;SDS011;46415;47.536;19.066;2023-06-22T17:38:19;11.12;;;7.15;;
60582;SDS011;46415;47.536;19.066;2023-06-22T17:41:34;11.00;;;6.50;;
60582;SDS011;46415;47.536;19.066;2023-06-22T17:44:39;8.90;;;6.70;;
60582;SDS011;46415;47.536;19.066;2023-06-22T17:47:47;10.45;;;7.28;;
60582;SDS011;46415;47.536;19.066;2023-06-22T17:50:55;7.20;;;6.50;;
60582;SDS011;46415;47.536;19.066;2023-06-22T17:53:57;8.02;;;7.05;;
60582;SDS011;46415;47.536;19.066;2023-06-22T17:57:00;10.70;;;7.28;;
60582;SDS011;46415;47.536;19.066;2023-06-22T18:00:06;7.40;;;6.70;;
60582;SDS011;46415;47.536;19.066;2023-06-22T18:03:13;9.15;;;7.22;;
60582;SDS011;46415;47.536;19.066;2023-06-22T18:06:16;10.25;;;6.78;;
60582;SDS011;46415;47.536;19.066;2023-06-22T18:09:19;11.90;;;7.37;;
60582;SDS011;46415;47.536;19.066;2023-06-22T18:12:22;11.77;;;7.00;;
60582;SDS011;46415;47.536;19.066;2023-06-22T18:15:26;9.05;;;6.93;;